sensor_id;sensor_type;location;lat;lon;timestamp;temperature;humidity
19342;DHT22;9807;48.258;12.690;2022-11-20T00:49:55;9.60;99.90
19342;DHT22;9807;48.258;12.690;2022-11-20T00:52:22;9.70;99.90
19342;DHT22;9807;48.258;12.690;2022-11-20T00:54:49;9.80;99.90
19342;DHT22;9807;48.258;12.690;2022-11-20T00:57:15;9.80;99.90
19342;DHT22;9807;48.258;12.690;2022-11-20T00:59:40;9.80;99.90
19342;DHT22;9807;48.258;12.690;2022-11-20T01:02:09;9.30;99.90
19342;DHT22;9807;48.258;12.690;2022-11-20T01:04:36;9.00;99.90
19342;DHT22;9807;48.258;12.690;2022-11-20T01:07:03;9.00;99.90
19342;DHT22;9807;48.258;12.690;2022-11-20T01:09:30;9.30;99.90
19342;DHT22;9807;48.258;12.690;2022-11-20T01:11:56;9.10;99.90
19342;DHT22;9807;48.258;12.690;2022-11-20T01:14:22;8.80;99.90
19342;DHT22;9807;48.258;12.690;2022-11-20T01:16:50;8.40;99.90
19342;DHT22;9807;48.258;12.690;2022-11-20T01:19:25;8.40;99.90
19342;DHT22;9807;48.258;12.690;2022-11-20T01:21:52;8.30;99.90
19342;DHT22;9807;48.258;12.690;2022-11-20T01:24:20;8.50;99.90
19342;DHT22;9807;48.258;12.690;2022-11-20T01:26:48;8.70;99.90
19342;DHT22;9807;48.258;12.690;2022-11-20T01:29:20;8.70;99.90
19342;DHT22;9807;48.258;12.690;2022-11-20T01:31:46;8.60;99.90
19342;DHT22;9807;48.258;12.690;2022-11-20T01:34:15;8.40;99.90
19342;DHT22;9807;48.258;12.690;2022-11-20T01:36:42;8.40;99.90
19342;DHT22;9807;48.258;12.690;2022-11-20T01:39:14;8.40;99.90
19342;DHT22;9807;48.258;12.690;2022-11-20T01:41:41;8.60;99.90
19342;DHT22;9807;48.258;12.690;2022-11-20T01:45:42;8.70;99.90
19342;DHT22;9807;48.258;12.690;2022-11-20T01:50:03;8.30;99.90
19342;DHT22;9807;48.258;12.690;2022-11-20T01:52:37;8.00;99.90
19342;DHT22;9807;48.258;12.690;2022-11-20T11:37:18;8.20;99.90
19342;DHT22;9807;48.258;12.690;2022-11-20T16:10:52;7.30;99.90
19342;DHT22;9807;48.258;12.690;2022-11-20T16:13:18;7.40;99.90
19342;DHT22;9807;48.258;12.690;2022-11-20T16:16:11;7.30;99.90
19342;DHT22;9807;48.258;12.690;2022-11-20T16:18:43;7.30;99.90
19342;DHT22;9807;48.258;12.690;2022-11-20T16:21:12;7.30;99.90
19342;DHT22;9807;48.258;12.690;2022-11-20T16:23:39;7.30;99.90
19342;DHT22;9807;48.258;12.690;2022-11-20T16:26:13;7.30;99.90
19342;DHT22;9807;48.258;12.690;2022-11-20T16:28:42;7.20;99.90
19342;DHT22;9807;48.258;12.690;2022-11-20T16:31:13;7.30;99.90
19342;DHT22;9807;48.258;12.690;2022-11-20T16:33:39;7.30;99.90
19342;DHT22;9807;48.258;12.690;2022-11-20T16:36:11;7.30;99.90
19342;DHT22;9807;48.258;12.690;2022-11-20T16:38:37;7.30;99.90
19342;DHT22;9807;48.258;12.690;2022-11-20T16:41:04;7.30;99.90
19342;DHT22;9807;48.258;12.690;2022-11-20T16:43:29;7.30;99.90
19342;DHT22;9807;48.258;12.690;2022-11-20T16:45:55;7.30;99.90
19342;DHT22;9807;48.258;12.690;2022-11-20T16:48:24;7.20;99.90
19342;DHT22;9807;48.258;12.690;2022-11-20T16:50:52;7.20;99.90
19342;DHT22;9807;48.258;12.690;2022-11-20T16:53:20;7.10;99.90
19342;DHT22;9807;48.258;12.690;2022-11-20T16:55:49;7.00;99.90
19342;DHT22;9807;48.258;12.690;2022-11-20T16:58:18;7.00;99.90
19342;DHT22;9807;48.258;12.690;2022-11-20T17:00:44;6.90;99.90
19342;DHT22;9807;48.258;12.690;2022-11-20T17:03:10;6.90;99.90
19342;DHT22;9807;48.258;12.690;2022-11-20T17:05:36;6.80;99.90
19342;DHT22;9807;48.258;12.690;2022-11-20T17:08:02;6.90;99.90
19342;DHT22;9807;48.258;12.690;2022-11-20T17:10:29;6.90;99.90
19342;DHT22;9807;48.258;12.690;2022-11-20T17:12:55;6.80;99.90
19342;DHT22;9807;48.258;12.690;2022-11-20T17:15:21;6.70;99.90
19342;DHT22;9807;48.258;12.690;2022-11-20T17:17:46;6.80;99.90
19342;DHT22;9807;48.258;12.690;2022-11-20T17:20:13;6.80;99.90
19342;DHT22;9807;48.258;12.690;2022-11-20T17:22:39;6.80;99.90
19342;DHT22;9807;48.258;12.690;2022-11-20T17:25:06;6.80;99.90
19342;DHT22;9807;48.258;12.690;2022-11-20T17:27:33;6.60;99.90
19342;DHT22;9807;48.258;12.690;2022-11-20T17:29:58;6.50;99.90
19342;DHT22;9807;48.258;12.690;2022-11-20T17:32:24;6.50;99.90
19342;DHT22;9807;48.258;12.690;2022-11-20T17:34:50;6.40;99.90
19342;DHT22;9807;48.258;12.690;2022-11-20T17:37:15;6.40;99.90
19342;DHT22;9807;48.258;12.690;2022-11-20T17:39:42;6.40;99.90
19342;DHT22;9807;48.258;12.690;2022-11-20T17:42:09;6.40;99.90
19342;DHT22;9807;48.258;12.690;2022-11-20T17:44:54;6.30;99.90
19342;DHT22;9807;48.258;12.690;2022-11-20T17:47:21;6.40;99.90
19342;DHT22;9807;48.258;12.690;2022-11-20T17:49:47;6.50;99.90
19342;DHT22;9807;48.258;12.690;2022-11-20T17:52:12;6.60;99.90
19342;DHT22;9807;48.258;12.690;2022-11-20T17:54:38;6.60;99.90
19342;DHT22;9807;48.258;12.690;2022-11-20T17:57:08;6.60;99.90
19342;DHT22;9807;48.258;12.690;2022-11-20T17:59:53;6.90;99.90
19342;DHT22;9807;48.258;12.690;2022-11-20T18:02:19;7.10;99.90
19342;DHT22;9807;48.258;12.690;2022-11-20T18:04:44;7.40;99.90
19342;DHT22;9807;48.258;12.690;2022-11-20T18:07:10;7.60;99.90
19342;DHT22;9807;48.258;12.690;2022-11-20T18:09:36;7.80;99.90
19342;DHT22;9807;48.258;12.690;2022-11-20T18:12:02;8.10;99.90
19342;DHT22;9807;48.258;12.690;2022-11-20T18:14:28;8.30;99.90
19342;DHT22;9807;48.258;12.690;2022-11-20T18:17:02;8.50;99.90
19342;DHT22;9807;48.258;12.690;2022-11-20T18:19:33;8.70;99.90
19342;DHT22;9807;48.258;12.690;2022-11-20T18:22:00;8.80;99.90
19342;DHT22;9807;48.258;12.690;2022-11-20T18:24:29;8.80;99.90
19342;DHT22;9807;48.258;12.690;2022-11-20T18:26:55;8.90;99.90
19342;DHT22;9807;48.258;12.690;2022-11-20T18:29:22;8.90;99.90
19342;DHT22;9807;48.258;12.690;2022-11-20T18:31:48;8.70;99.90
19342;DHT22;9807;48.258;12.690;2022-11-20T18:34:14;8.50;99.90
19342;DHT22;9807;48.258;12.690;2022-11-20T18:36:40;8.60;99.90
19342;DHT22;9807;48.258;12.690;2022-11-20T18:39:10;8.70;99.90
19342;DHT22;9807;48.258;12.690;2022-11-20T18:41:36;8.80;99.90
19342;DHT22;9807;48.258;12.690;2022-11-20T18:44:22;8.90;99.90
19342;DHT22;9807;48.258;12.690;2022-11-20T18:47:16;9.00;99.90
19342;DHT22;9807;48.258;12.690;2022-11-20T18:49:43;9.00;99.90
19342;DHT22;9807;48.258;12.690;2022-11-20T18:52:20;8.90;99.90
19342;DHT22;9807;48.258;12.690;2022-11-20T18:54:46;8.60;99.90
19342;DHT22;9807;48.258;12.690;2022-11-20T18:57:12;8.60;99.90
19342;DHT22;9807;48.258;12.690;2022-11-20T18:59:41;8.70;99.90
19342;DHT22;9807;48.258;12.690;2022-11-20T19:02:13;8.80;99.90
19342;DHT22;9807;48.258;12.690;2022-11-20T19:04:39;8.90;99.90
19342;DHT22;9807;48.258;12.690;2022-11-20T19:07:08;8.90;99.90
19342;DHT22;9807;48.258;12.690;2022-11-20T19:09:37;8.80;99.90
19342;DHT22;9807;48.258;12.690;2022-11-20T19:12:03;8.80;99.90
19342;DHT22;9807;48.258;12.690;2022-11-20T19:14:29;8.70;99.90
19342;DHT22;9807;48.258;12.690;2022-11-20T19:16:55;8.70;99.90
19342;DHT22;9807;48.258;12.690;2022-11-20T19:19:21;8.70;99.90
19342;DHT22;9807;48.258;12.690;2022-11-20T19:21:47;8.70;99.90
19342;DHT22;9807;48.258;12.690;2022-11-20T19:24:12;8.50;99.90
19342;DHT22;9807;48.258;12.690;2022-11-20T19:26:38;8.30;99.90
19342;DHT22;9807;48.258;12.690;2022-11-20T19:29:05;8.10;99.90
19342;DHT22;9807;48.258;12.690;2022-11-20T19:31:33;7.90;99.90
19342;DHT22;9807;48.258;12.690;2022-11-20T19:34:01;7.90;99.90
19342;DHT22;9807;48.258;12.690;2022-11-20T19:36:30;8.10;99.90
19342;DHT22;9807;48.258;12.690;2022-11-20T19:38:57;8.20;99.90
19342;DHT22;9807;48.258;12.690;2022-11-20T19:41:25;8.40;99.90
19342;DHT22;9807;48.258;12.690;2022-11-20T19:44:12;8.50;99.90
19342;DHT22;9807;48.258;12.690;2022-11-20T19:46:39;8.60;99.90
19342;DHT22;9807;48.258;12.690;2022-11-20T19:49:12;8.70;99.90
19342;DHT22;9807;48.258;12.690;2022-11-20T19:51:44;8.80;99.90
19342;DHT22;9807;48.258;12.690;2022-11-20T19:54:11;8.90;99.90
19342;DHT22;9807;48.258;12.690;2022-11-20T19:56:36;8.90;99.90
19342;DHT22;9807;48.258;12.690;2022-11-20T19:59:02;8.80;99.90
19342;DHT22;9807;48.258;12.690;2022-11-20T20:01:29;8.70;99.90
19342;DHT22;9807;48.258;12.690;2022-11-20T20:03:57;8.70;99.90
19342;DHT22;9807;48.258;12.690;2022-11-20T20:06:27;8.80;99.90
19342;DHT22;9807;48.258;12.690;2022-11-20T20:08:55;8.80;99.90
19342;DHT22;9807;48.258;12.690;2022-11-20T20:11:23;8.90;99.90
19342;DHT22;9807;48.258;12.690;2022-11-20T20:13:49;8.90;99.90
19342;DHT22;9807;48.258;12.690;2022-11-20T20:16:18;8.90;99.90
19342;DHT22;9807;48.258;12.690;2022-11-20T20:18:44;8.90;99.90
19342;DHT22;9807;48.258;12.690;2022-11-20T20:21:13;8.90;99.90
19342;DHT22;9807;48.258;12.690;2022-11-20T20:23:39;8.80;99.90
19342;DHT22;9807;48.258;12.690;2022-11-20T20:26:08;8.50;99.90
19342;DHT22;9807;48.258;12.690;2022-11-20T20:28:35;8.50;99.90
19342;DHT22;9807;48.258;12.690;2022-11-20T20:31:28;8.60;99.90
19342;DHT22;9807;48.258;12.690;2022-11-20T20:33:54;8.60;99.90
19342;DHT22;9807;48.258;12.690;2022-11-20T20:36:22;8.50;99.90
19342;DHT22;9807;48.258;12.690;2022-11-20T20:38:54;8.40;99.90
19342;DHT22;9807;48.258;12.690;2022-11-20T20:41:22;8.40;99.90
19342;DHT22;9807;48.258;12.690;2022-11-20T20:43:48;8.60;99.90
19342;DHT22;9807;48.258;12.690;2022-11-20T20:46:33;8.60;99.90
19342;DHT22;9807;48.258;12.690;2022-11-20T20:48:59;8.70;99.90
19342;DHT22;9807;48.258;12.690;2022-11-20T20:51:25;8.70;99.90
19342;DHT22;9807;48.258;12.690;2022-11-20T20:53:51;8.70;99.90
19342;DHT22;9807;48.258;12.690;2022-11-20T20:56:18;8.70;99.90
19342;DHT22;9807;48.258;12.690;2022-11-20T20:58:44;8.80;99.90
19342;DHT22;9807;48.258;12.690;2022-11-20T21:01:12;8.80;99.90
19342;DHT22;9807;48.258;12.690;2022-11-20T21:03:38;8.80;99.90
19342;DHT22;9807;48.258;12.690;2022-11-20T21:06:05;8.70;99.90
19342;DHT22;9807;48.258;12.690;2022-11-20T21:08:33;8.80;99.90
19342;DHT22;9807;48.258;12.690;2022-11-20T21:11:04;8.60;99.90
19342;DHT22;9807;48.258;12.690;2022-11-20T21:13:32;8.60;99.90
19342;DHT22;9807;48.258;12.690;2022-11-20T21:15:58;8.00;99.90
19342;DHT22;9807;48.258;12.690;2022-11-20T21:18:24;7.50;99.90
19342;DHT22;9807;48.258;12.690;2022-11-20T21:20:51;7.50;99.90
19342;DHT22;9807;48.258;12.690;2022-11-20T21:23:37;7.70;99.90
19342;DHT22;9807;48.258;12.690;2022-11-20T21:26:07;7.90;99.90
19342;DHT22;9807;48.258;12.690;2022-11-20T21:28:36;8.10;99.90
19342;DHT22;9807;48.258;12.690;2022-11-20T21:31:12;8.20;99.90
19342;DHT22;9807;48.258;12.690;2022-11-20T21:33:41;8.40;99.90
19342;DHT22;9807;48.258;12.690;2022-11-20T21:36:09;8.40;99.90
19342;DHT22;9807;48.258;12.690;2022-11-20T21:38:36;8.50;99.90
19342;DHT22;9807;48.258;12.690;2022-11-20T21:41:07;8.50;99.90
19342;DHT22;9807;48.258;12.690;2022-11-20T21:43:35;8.60;99.90
19342;DHT22;9807;48.258;12.690;2022-11-20T21:46:12;8.60;99.90
19342;DHT22;9807;48.258;12.690;2022-11-20T21:48:40;8.60;99.90
19342;DHT22;9807;48.258;12.690;2022-11-20T21:51:12;8.10;99.90
19342;DHT22;9807;48.258;12.690;2022-11-20T21:53:38;8.00;99.90
19342;DHT22;9807;48.258;12.690;2022-11-20T21:56:05;8.10;99.90
19342;DHT22;9807;48.258;12.690;2022-11-20T21:58:34;8.20;99.90
19342;DHT22;9807;48.258;12.690;2022-11-20T22:03:40;8.50;99.90
19342;DHT22;9807;48.258;12.690;2022-11-20T22:06:09;8.50;99.90
19342;DHT22;9807;48.258;12.690;2022-11-20T22:08:36;8.60;99.90
19342;DHT22;9807;48.258;12.690;2022-11-20T22:11:04;8.60;99.90
19342;DHT22;9807;48.258;12.690;2022-11-20T22:13:30;8.70;99.90
19342;DHT22;9807;48.258;12.690;2022-11-20T22:16:15;8.70;99.90
19342;DHT22;9807;48.258;12.690;2022-11-20T22:18:52;8.70;99.90
19342;DHT22;9807;48.258;12.690;2022-11-20T22:21:20;8.70;99.90
19342;DHT22;9807;48.258;12.690;2022-11-20T22:23:47;8.70;99.90
19342;DHT22;9807;48.258;12.690;2022-11-20T22:26:15;8.70;99.90
19342;DHT22;9807;48.258;12.690;2022-11-20T22:28:42;8.70;99.90
19342;DHT22;9807;48.258;12.690;2022-11-20T22:31:12;8.70;99.90
19342;DHT22;9807;48.258;12.690;2022-11-20T22:33:38;8.70;99.90
19342;DHT22;9807;48.258;12.690;2022-11-20T22:36:30;8.60;99.90
19342;DHT22;9807;48.258;12.690;2022-11-20T22:38:57;8.60;99.90
19342;DHT22;9807;48.258;12.690;2022-11-20T22:41:25;8.50;99.90
19342;DHT22;9807;48.258;12.690;2022-11-20T22:44:02;8.20;99.90
19342;DHT22;9807;48.258;12.690;2022-11-20T22:46:31;7.10;99.90
19342;DHT22;9807;48.258;12.690;2022-11-20T22:48:59;6.50;99.90
19342;DHT22;9807;48.258;12.690;2022-11-20T22:51:30;6.20;99.90
19342;DHT22;9807;48.258;12.690;2022-11-20T22:53:57;6.20;99.90
19342;DHT22;9807;48.258;12.690;2022-11-20T22:56:23;6.30;99.90
19342;DHT22;9807;48.258;12.690;2022-11-20T22:58:52;6.50;99.90
19342;DHT22;9807;48.258;12.690;2022-11-20T23:01:23;6.50;99.90
19342;DHT22;9807;48.258;12.690;2022-11-20T23:03:57;6.10;99.90
19342;DHT22;9807;48.258;12.690;2022-11-20T23:06:26;5.70;99.90
19342;DHT22;9807;48.258;12.690;2022-11-20T23:08:58;5.20;99.90
19342;DHT22;9807;48.258;12.690;2022-11-20T23:11:26;4.90;99.90
19342;DHT22;9807;48.258;12.690;2022-11-20T23:13:54;4.70;99.90
19342;DHT22;9807;48.258;12.690;2022-11-20T23:16:26;4.60;99.90
19342;DHT22;9807;48.258;12.690;2022-11-20T23:19:12;4.60;99.90
19342;DHT22;9807;48.258;12.690;2022-11-20T23:21:40;4.60;99.90
19342;DHT22;9807;48.258;12.690;2022-11-20T23:24:09;4.60;99.90
19342;DHT22;9807;48.258;12.690;2022-11-20T23:26:37;4.70;99.90
19342;DHT22;9807;48.258;12.690;2022-11-20T23:29:03;4.70;99.90
19342;DHT22;9807;48.258;12.690;2022-11-20T23:31:30;4.70;99.90
19342;DHT22;9807;48.258;12.690;2022-11-20T23:33:57;4.80;99.90
19342;DHT22;9807;48.258;12.690;2022-11-20T23:36:23;4.80;99.90
19342;DHT22;9807;48.258;12.690;2022-11-20T23:38:49;4.90;99.90
19342;DHT22;9807;48.258;12.690;2022-11-20T23:41:14;5.10;99.90
19342;DHT22;9807;48.258;12.690;2022-11-20T23:43:40;5.30;99.90
19342;DHT22;9807;48.258;12.690;2022-11-20T23:46:10;5.50;99.90
19342;DHT22;9807;48.258;12.690;2022-11-20T23:48:37;5.50;99.90
19342;DHT22;9807;48.258;12.690;2022-11-20T23:51:05;5.50;99.90
19342;DHT22;9807;48.258;12.690;2022-11-20T23:53:34;5.50;99.90
19342;DHT22;9807;48.258;12.690;2022-11-20T23:56:02;5.40;99.90
19342;DHT22;9807;48.258;12.690;2022-11-20T23:58:45;5.40;99.90
